sensor_id;sensor_type;location;lat;lon;timestamp;temperature;humidity
981;DHT22;479;53.514;9.994;2023-02-28T00:01:47;4.90;96.70
981;DHT22;479;53.514;9.994;2023-02-28T00:04:15;4.90;96.70
981;DHT22;479;53.514;9.994;2023-02-28T00:06:42;4.90;96.70
981;DHT22;479;53.514;9.994;2023-02-28T00:09:08;4.80;97.00
981;DHT22;479;53.514;9.994;2023-02-28T00:11:35;4.80;96.90
981;DHT22;479;53.514;9.994;2023-02-28T00:14:03;4.90;97.10
981;DHT22;479;53.514;9.994;2023-02-28T00:16:30;4.90;97.20
981;DHT22;479;53.514;9.994;2023-02-28T00:18:57;4.90;97.00
981;DHT22;479;53.514;9.994;2023-02-28T00:21:25;4.90;97.10
981;DHT22;479;53.514;9.994;2023-02-28T00:23:52;4.90;97.20
981;DHT22;479;53.514;9.994;2023-02-28T00:26:19;4.80;97.20
981;DHT22;479;53.514;9.994;2023-02-28T00:28:46;4.80;97.50
981;DHT22;479;53.514;9.994;2023-02-28T00:31:13;4.70;97.70
981;DHT22;479;53.514;9.994;2023-02-28T00:33:40;4.60;98.40
981;DHT22;479;53.514;9.994;2023-02-28T00:36:09;4.50;98.60
981;DHT22;479;53.514;9.994;2023-02-28T00:38:38;4.60;99.30
981;DHT22;479;53.514;9.994;2023-02-28T00:41:06;4.50;99.10
981;DHT22;479;53.514;9.994;2023-02-28T00:43:34;4.40;99.60
981;DHT22;479;53.514;9.994;2023-02-28T00:46:02;4.40;99.80
981;DHT22;479;53.514;9.994;2023-02-28T00:48:29;4.40;99.90
981;DHT22;479;53.514;9.994;2023-02-28T00:50:56;4.30;99.90
981;DHT22;479;53.514;9.994;2023-02-28T00:53:24;4.10;99.90
981;DHT22;479;53.514;9.994;2023-02-28T00:55:52;4.20;99.90
981;DHT22;479;53.514;9.994;2023-02-28T00:58:19;4.20;99.90
981;DHT22;479;53.514;9.994;2023-02-28T01:00:46;4.10;99.90
981;DHT22;479;53.514;9.994;2023-02-28T01:03:15;4.00;99.90
981;DHT22;479;53.514;9.994;2023-02-28T01:05:42;4.00;99.90
981;DHT22;479;53.514;9.994;2023-02-28T01:08:09;4.00;99.90
981;DHT22;479;53.514;9.994;2023-02-28T01:10:35;3.90;99.90
981;DHT22;479;53.514;9.994;2023-02-28T01:13:05;4.00;99.90
981;DHT22;479;53.514;9.994;2023-02-28T01:15:32;4.00;99.90
981;DHT22;479;53.514;9.994;2023-02-28T01:17:59;4.10;99.90
981;DHT22;479;53.514;9.994;2023-02-28T01:20:26;4.20;99.90
981;DHT22;479;53.514;9.994;2023-02-28T01:22:52;4.20;99.90
981;DHT22;479;53.514;9.994;2023-02-28T01:25:19;4.30;99.90
981;DHT22;479;53.514;9.994;2023-02-28T01:27:46;4.20;99.90
981;DHT22;479;53.514;9.994;2023-02-28T01:30:15;4.20;99.90
981;DHT22;479;53.514;9.994;2023-02-28T01:32:41;4.10;99.90
981;DHT22;479;53.514;9.994;2023-02-28T01:35:08;4.00;99.90
981;DHT22;479;53.514;9.994;2023-02-28T01:37:35;4.10;99.90
981;DHT22;479;53.514;9.994;2023-02-28T01:40:03;4.20;99.90
981;DHT22;479;53.514;9.994;2023-02-28T01:42:30;4.40;99.90
981;DHT22;479;53.514;9.994;2023-02-28T01:45:04;4.30;99.90
981;DHT22;479;53.514;9.994;2023-02-28T01:47:37;4.30;99.90
981;DHT22;479;53.514;9.994;2023-02-28T01:50:10;4.30;99.90
981;DHT22;479;53.514;9.994;2023-02-28T01:52:38;4.20;99.90
981;DHT22;479;53.514;9.994;2023-02-28T01:55:07;4.10;99.90
981;DHT22;479;53.514;9.994;2023-02-28T01:57:38;4.10;99.90
981;DHT22;479;53.514;9.994;2023-02-28T02:00:09;4.00;99.90
981;DHT22;479;53.514;9.994;2023-02-28T02:02:41;3.90;99.90
981;DHT22;479;53.514;9.994;2023-02-28T02:05:10;3.80;99.90
981;DHT22;479;53.514;9.994;2023-02-28T02:07:41;3.70;99.90
981;DHT22;479;53.514;9.994;2023-02-28T02:10:12;3.70;99.90
981;DHT22;479;53.514;9.994;2023-02-28T02:13:05;3.60;99.90
981;DHT22;479;53.514;9.994;2023-02-28T02:15:40;3.60;99.90
981;DHT22;479;53.514;9.994;2023-02-28T02:18:19;3.60;99.90
981;DHT22;479;53.514;9.994;2023-02-28T02:27:09;3.30;99.90
981;DHT22;479;53.514;9.994;2023-02-28T02:30:30;3.20;99.90
981;DHT22;479;53.514;9.994;2023-02-28T02:35:55;3.10;99.90
981;DHT22;479;53.514;9.994;2023-02-28T02:38:31;3.00;99.90
981;DHT22;479;53.514;9.994;2023-02-28T02:41:06;3.00;99.90
981;DHT22;479;53.514;9.994;2023-02-28T02:43:38;3.00;99.90
981;DHT22;479;53.514;9.994;2023-02-28T02:46:10;3.00;99.90
981;DHT22;479;53.514;9.994;2023-02-28T02:48:40;3.00;99.90
981;DHT22;479;53.514;9.994;2023-02-28T02:51:13;3.00;99.90
981;DHT22;479;53.514;9.994;2023-02-28T02:53:44;3.00;99.90
981;DHT22;479;53.514;9.994;2023-02-28T02:56:16;2.90;99.90
981;DHT22;479;53.514;9.994;2023-02-28T02:58:47;2.80;99.90
981;DHT22;479;53.514;9.994;2023-02-28T03:01:18;2.80;99.90
981;DHT22;479;53.514;9.994;2023-02-28T03:03:55;2.70;99.90
981;DHT22;479;53.514;9.994;2023-02-28T03:06:25;2.70;99.90
981;DHT22;479;53.514;9.994;2023-02-28T03:08:53;2.60;99.90
981;DHT22;479;53.514;9.994;2023-02-28T03:11:22;2.60;99.90
981;DHT22;479;53.514;9.994;2023-02-28T03:14:02;2.50;99.90
981;DHT22;479;53.514;9.994;2023-02-28T03:16:45;2.40;99.90
981;DHT22;479;53.514;9.994;2023-02-28T03:19:45;2.50;99.90
981;DHT22;479;53.514;9.994;2023-02-28T03:22:42;2.50;99.90
981;DHT22;479;53.514;9.994;2023-02-28T03:25:20;2.30;99.90
981;DHT22;479;53.514;9.994;2023-02-28T03:28:00;2.30;99.90
981;DHT22;479;53.514;9.994;2023-02-28T03:30:35;2.20;99.90
981;DHT22;479;53.514;9.994;2023-02-28T03:33:06;2.20;99.90
981;DHT22;479;53.514;9.994;2023-02-28T03:35:37;2.10;99.90
981;DHT22;479;53.514;9.994;2023-02-28T03:38:10;2.10;99.90
981;DHT22;479;53.514;9.994;2023-02-28T03:40:42;2.00;99.90
981;DHT22;479;53.514;9.994;2023-02-28T03:43:14;1.90;99.90
981;DHT22;479;53.514;9.994;2023-02-28T03:45:43;1.90;99.90
981;DHT22;479;53.514;9.994;2023-02-28T03:48:15;1.90;99.90
981;DHT22;479;53.514;9.994;2023-02-28T03:50:43;1.90;99.90
981;DHT22;479;53.514;9.994;2023-02-28T03:53:15;1.80;99.90
981;DHT22;479;53.514;9.994;2023-02-28T03:55:45;1.70;99.90
981;DHT22;479;53.514;9.994;2023-02-28T03:58:17;1.70;99.90
981;DHT22;479;53.514;9.994;2023-02-28T04:00:50;1.80;99.90
981;DHT22;479;53.514;9.994;2023-02-28T04:03:19;1.80;99.90
981;DHT22;479;53.514;9.994;2023-02-28T04:05:50;1.90;99.90
981;DHT22;479;53.514;9.994;2023-02-28T04:08:18;1.90;99.90
981;DHT22;479;53.514;9.994;2023-02-28T04:10:49;1.90;99.90
981;DHT22;479;53.514;9.994;2023-02-28T04:13:17;1.90;99.90
981;DHT22;479;53.514;9.994;2023-02-28T04:15:44;1.70;99.90
981;DHT22;479;53.514;9.994;2023-02-28T04:18:11;1.60;99.90
981;DHT22;479;53.514;9.994;2023-02-28T04:20:38;1.60;99.90
981;DHT22;479;53.514;9.994;2023-02-28T04:23:05;1.60;99.90
981;DHT22;479;53.514;9.994;2023-02-28T04:25:33;1.50;99.90
981;DHT22;479;53.514;9.994;2023-02-28T04:28:00;1.60;99.90
981;DHT22;479;53.514;9.994;2023-02-28T04:30:27;1.50;99.90
981;DHT22;479;53.514;9.994;2023-02-28T04:32:55;1.40;99.90
981;DHT22;479;53.514;9.994;2023-02-28T04:35:22;1.30;99.90
981;DHT22;479;53.514;9.994;2023-02-28T04:37:48;1.30;99.90
981;DHT22;479;53.514;9.994;2023-02-28T04:40:16;1.40;99.90
981;DHT22;479;53.514;9.994;2023-02-28T04:42:44;1.30;99.90
981;DHT22;479;53.514;9.994;2023-02-28T04:45:11;1.30;99.90
981;DHT22;479;53.514;9.994;2023-02-28T04:47:38;1.20;99.90
981;DHT22;479;53.514;9.994;2023-02-28T04:50:05;1.20;99.90
981;DHT22;479;53.514;9.994;2023-02-28T04:52:32;1.20;99.90
981;DHT22;479;53.514;9.994;2023-02-28T04:54:59;1.20;99.90
981;DHT22;479;53.514;9.994;2023-02-28T04:57:26;1.10;99.90
981;DHT22;479;53.514;9.994;2023-02-28T04:59:54;1.20;99.90
981;DHT22;479;53.514;9.994;2023-02-28T05:02:21;1.20;99.90
981;DHT22;479;53.514;9.994;2023-02-28T05:04:49;1.10;99.90
981;DHT22;479;53.514;9.994;2023-02-28T05:07:16;1.10;99.90
981;DHT22;479;53.514;9.994;2023-02-28T05:09:43;1.00;99.90
981;DHT22;479;53.514;9.994;2023-02-28T05:12:10;1.10;99.90
981;DHT22;479;53.514;9.994;2023-02-28T05:14:37;1.10;99.90
981;DHT22;479;53.514;9.994;2023-02-28T05:17:05;1.10;99.90
981;DHT22;479;53.514;9.994;2023-02-28T05:19:32;1.00;99.90
981;DHT22;479;53.514;9.994;2023-02-28T05:21:59;1.00;99.90
981;DHT22;479;53.514;9.994;2023-02-28T05:24:26;0.90;99.90
981;DHT22;479;53.514;9.994;2023-02-28T05:26:53;0.90;99.90
981;DHT22;479;53.514;9.994;2023-02-28T05:29:21;1.00;99.90
981;DHT22;479;53.514;9.994;2023-02-28T05:31:47;1.00;99.90
981;DHT22;479;53.514;9.994;2023-02-28T05:34:16;1.00;99.90
981;DHT22;479;53.514;9.994;2023-02-28T05:36:43;1.00;99.90
981;DHT22;479;53.514;9.994;2023-02-28T05:39:10;1.00;99.90
981;DHT22;479;53.514;9.994;2023-02-28T05:41:39;1.10;99.90
981;DHT22;479;53.514;9.994;2023-02-28T05:44:07;1.10;99.90
981;DHT22;479;53.514;9.994;2023-02-28T05:46:33;1.00;99.90
981;DHT22;479;53.514;9.994;2023-02-28T05:49:00;1.10;99.90
981;DHT22;479;53.514;9.994;2023-02-28T05:51:29;1.10;99.90
981;DHT22;479;53.514;9.994;2023-02-28T05:53:59;1.00;99.90
981;DHT22;479;53.514;9.994;2023-02-28T05:56:26;0.90;99.90
981;DHT22;479;53.514;9.994;2023-02-28T05:58:53;0.90;99.90
981;DHT22;479;53.514;9.994;2023-02-28T06:01:23;0.90;99.90
981;DHT22;479;53.514;9.994;2023-02-28T06:03:51;0.90;99.90
981;DHT22;479;53.514;9.994;2023-02-28T06:06:18;0.90;99.90
981;DHT22;479;53.514;9.994;2023-02-28T06:08:46;0.90;99.90
981;DHT22;479;53.514;9.994;2023-02-28T06:11:13;0.90;99.90
981;DHT22;479;53.514;9.994;2023-02-28T06:13:40;0.90;99.90
981;DHT22;479;53.514;9.994;2023-02-28T06:16:08;0.90;99.90
981;DHT22;479;53.514;9.994;2023-02-28T06:18:35;0.80;99.90
981;DHT22;479;53.514;9.994;2023-02-28T06:21:02;0.90;99.90
981;DHT22;479;53.514;9.994;2023-02-28T06:23:29;0.90;99.90
981;DHT22;479;53.514;9.994;2023-02-28T06:25:58;0.90;99.90
981;DHT22;479;53.514;9.994;2023-02-28T06:28:25;1.00;99.90
981;DHT22;479;53.514;9.994;2023-02-28T06:30:52;1.10;99.90
981;DHT22;479;53.514;9.994;2023-02-28T06:33:19;1.10;99.90
981;DHT22;479;53.514;9.994;2023-02-28T06:35:47;1.10;99.90
981;DHT22;479;53.514;9.994;2023-02-28T06:38:14;1.00;99.90
981;DHT22;479;53.514;9.994;2023-02-28T06:40:41;1.00;99.90
981;DHT22;479;53.514;9.994;2023-02-28T06:43:10;1.00;99.90
981;DHT22;479;53.514;9.994;2023-02-28T06:45:42;1.10;99.90
981;DHT22;479;53.514;9.994;2023-02-28T06:48:09;1.10;99.90
981;DHT22;479;53.514;9.994;2023-02-28T06:50:36;1.10;99.90
981;DHT22;479;53.514;9.994;2023-02-28T06:53:03;1.20;99.90
981;DHT22;479;53.514;9.994;2023-02-28T06:55:30;1.20;99.90
981;DHT22;479;53.514;9.994;2023-02-28T06:57:57;1.20;99.90
981;DHT22;479;53.514;9.994;2023-02-28T07:00:25;1.20;99.90
981;DHT22;479;53.514;9.994;2023-02-28T07:02:52;1.20;99.90
981;DHT22;479;53.514;9.994;2023-02-28T07:05:21;1.20;99.90
981;DHT22;479;53.514;9.994;2023-02-28T07:07:48;1.20;99.90
981;DHT22;479;53.514;9.994;2023-02-28T07:10:15;1.20;99.90
981;DHT22;479;53.514;9.994;2023-02-28T07:12:43;1.20;99.90
981;DHT22;479;53.514;9.994;2023-02-28T07:15:10;1.10;99.90
981;DHT22;479;53.514;9.994;2023-02-28T07:17:38;1.10;99.90
981;DHT22;479;53.514;9.994;2023-02-28T07:20:06;1.20;99.90
981;DHT22;479;53.514;9.994;2023-02-28T07:22:33;1.30;99.90
981;DHT22;479;53.514;9.994;2023-02-28T07:25:00;1.30;99.90
981;DHT22;479;53.514;9.994;2023-02-28T07:27:27;1.50;99.90
981;DHT22;479;53.514;9.994;2023-02-28T07:29:54;1.70;99.90
981;DHT22;479;53.514;9.994;2023-02-28T07:32:22;1.70;99.90
981;DHT22;479;53.514;9.994;2023-02-28T07:34:50;1.70;99.90
981;DHT22;479;53.514;9.994;2023-02-28T07:37:17;1.80;99.90
981;DHT22;479;53.514;9.994;2023-02-28T07:39:44;2.70;99.90
981;DHT22;479;53.514;9.994;2023-02-28T07:42:11;3.50;99.90
981;DHT22;479;53.514;9.994;2023-02-28T07:44:38;4.30;99.90
981;DHT22;479;53.514;9.994;2023-02-28T07:47:07;4.90;99.90
981;DHT22;479;53.514;9.994;2023-02-28T07:49:35;5.60;99.90
981;DHT22;479;53.514;9.994;2023-02-28T07:52:04;5.60;99.90
981;DHT22;479;53.514;9.994;2023-02-28T07:54:32;6.20;99.90
981;DHT22;479;53.514;9.994;2023-02-28T07:56:59;6.50;99.90
981;DHT22;479;53.514;9.994;2023-02-28T07:59:26;6.70;99.90
981;DHT22;479;53.514;9.994;2023-02-28T08:01:53;6.90;99.90
981;DHT22;479;53.514;9.994;2023-02-28T08:04:19;7.70;99.90
981;DHT22;479;53.514;9.994;2023-02-28T08:06:46;7.50;99.90
981;DHT22;479;53.514;9.994;2023-02-28T08:09:14;7.20;99.90
981;DHT22;479;53.514;9.994;2023-02-28T08:11:41;7.40;99.90
981;DHT22;479;53.514;9.994;2023-02-28T08:14:08;7.90;99.90
981;DHT22;479;53.514;9.994;2023-02-28T08:16:35;8.30;99.90
981;DHT22;479;53.514;9.994;2023-02-28T08:19:02;8.20;99.90
981;DHT22;479;53.514;9.994;2023-02-28T08:21:29;8.10;99.90
981;DHT22;479;53.514;9.994;2023-02-28T08:23:56;8.20;99.90
981;DHT22;479;53.514;9.994;2023-02-28T08:26:24;9.10;99.90
981;DHT22;479;53.514;9.994;2023-02-28T08:28:51;9.10;99.90
981;DHT22;479;53.514;9.994;2023-02-28T08:31:18;9.10;99.10
981;DHT22;479;53.514;9.994;2023-02-28T08:33:46;9.00;98.20
981;DHT22;479;53.514;9.994;2023-02-28T08:36:14;9.20;98.80
981;DHT22;479;53.514;9.994;2023-02-28T08:38:41;9.80;99.90
981;DHT22;479;53.514;9.994;2023-02-28T08:41:10;9.60;95.90
981;DHT22;479;53.514;9.994;2023-02-28T08:43:39;9.70;94.50
981;DHT22;479;53.514;9.994;2023-02-28T08:46:07;9.90;93.70
981;DHT22;479;53.514;9.994;2023-02-28T08:48:35;9.50;93.00
981;DHT22;479;53.514;9.994;2023-02-28T08:51:05;9.50;92.70
981;DHT22;479;53.514;9.994;2023-02-28T08:53:33;9.70;92.10
981;DHT22;479;53.514;9.994;2023-02-28T08:56:01;10.60;90.50
981;DHT22;479;53.514;9.994;2023-02-28T08:58:29;11.30;88.00
981;DHT22;479;53.514;9.994;2023-02-28T09:00:57;12.10;83.80
981;DHT22;479;53.514;9.994;2023-02-28T09:03:24;11.70;80.60
981;DHT22;479;53.514;9.994;2023-02-28T09:05:54;11.50;78.00
981;DHT22;479;53.514;9.994;2023-02-28T09:08:22;11.00;76.30
981;DHT22;479;53.514;9.994;2023-02-28T09:10:49;10.90;75.90
981;DHT22;479;53.514;9.994;2023-02-28T09:13:16;11.20;76.60
981;DHT22;479;53.514;9.994;2023-02-28T09:15:44;11.00;75.80
981;DHT22;479;53.514;9.994;2023-02-28T09:18:13;11.00;74.80
981;DHT22;479;53.514;9.994;2023-02-28T09:20:40;11.30;74.40
981;DHT22;479;53.514;9.994;2023-02-28T09:23:07;11.10;74.40
981;DHT22;479;53.514;9.994;2023-02-28T09:25:35;10.60;72.00
981;DHT22;479;53.514;9.994;2023-02-28T09:28:02;10.20;74.40
981;DHT22;479;53.514;9.994;2023-02-28T09:30:30;10.30;74.20
981;DHT22;479;53.514;9.994;2023-02-28T09:32:57;10.80;76.30
981;DHT22;479;53.514;9.994;2023-02-28T09:35:25;10.60;63.90
981;DHT22;479;53.514;9.994;2023-02-28T09:37:53;11.40;70.70
981;DHT22;479;53.514;9.994;2023-02-28T09:40:22;11.50;58.90
981;DHT22;479;53.514;9.994;2023-02-28T09:42:51;11.50;54.90
981;DHT22;479;53.514;9.994;2023-02-28T09:45:23;11.60;53.60
981;DHT22;479;53.514;9.994;2023-02-28T09:47:53;12.10;54.70
981;DHT22;479;53.514;9.994;2023-02-28T09:50:32;11.70;50.30
981;DHT22;479;53.514;9.994;2023-02-28T09:53:03;12.00;53.30
981;DHT22;479;53.514;9.994;2023-02-28T09:55:35;12.30;51.40
981;DHT22;479;53.514;9.994;2023-02-28T09:58:10;13.10;54.00
981;DHT22;479;53.514;9.994;2023-02-28T10:00:42;13.30;53.20
981;DHT22;479;53.514;9.994;2023-02-28T10:03:27;13.60;52.10
981;DHT22;479;53.514;9.994;2023-02-28T10:06:01;12.60;46.70
981;DHT22;479;53.514;9.994;2023-02-28T10:08:37;12.70;48.40
981;DHT22;479;53.514;9.994;2023-02-28T10:11:13;11.80;45.80
981;DHT22;479;53.514;9.994;2023-02-28T10:13:49;11.80;46.80
981;DHT22;479;53.514;9.994;2023-02-28T10:16:24;12.30;46.60
981;DHT22;479;53.514;9.994;2023-02-28T10:18:54;12.90;47.00
981;DHT22;479;53.514;9.994;2023-02-28T10:21:28;12.20;45.80
981;DHT22;479;53.514;9.994;2023-02-28T10:24:03;12.10;45.30
981;DHT22;479;53.514;9.994;2023-02-28T10:26:32;12.50;47.70
981;DHT22;479;53.514;9.994;2023-02-28T10:28:59;12.90;45.60
981;DHT22;479;53.514;9.994;2023-02-28T10:31:28;13.00;47.60
981;DHT22;479;53.514;9.994;2023-02-28T10:33:55;12.20;47.00
981;DHT22;479;53.514;9.994;2023-02-28T10:36:23;11.80;48.20
981;DHT22;479;53.514;9.994;2023-02-28T10:38:50;12.00;49.10
981;DHT22;479;53.514;9.994;2023-02-28T10:41:28;11.50;47.30
981;DHT22;479;53.514;9.994;2023-02-28T10:44:14;11.20;47.30
981;DHT22;479;53.514;9.994;2023-02-28T10:46:42;11.10;48.30
981;DHT22;479;53.514;9.994;2023-02-28T10:49:14;12.20;48.60
981;DHT22;479;53.514;9.994;2023-02-28T10:51:43;12.90;47.70
981;DHT22;479;53.514;9.994;2023-02-28T10:54:20;13.30;45.80
981;DHT22;479;53.514;9.994;2023-02-28T10:57:15;12.60;44.70
981;DHT22;479;53.514;9.994;2023-02-28T10:59:43;12.10;45.90
981;DHT22;479;53.514;9.994;2023-02-28T11:02:31;12.00;46.30
981;DHT22;479;53.514;9.994;2023-02-28T11:04:59;11.80;47.30
981;DHT22;479;53.514;9.994;2023-02-28T11:07:27;12.10;48.20
981;DHT22;479;53.514;9.994;2023-02-28T11:09:55;12.10;47.80
981;DHT22;479;53.514;9.994;2023-02-28T11:12:25;12.80;47.10
981;DHT22;479;53.514;9.994;2023-02-28T11:14:56;12.90;48.20
981;DHT22;479;53.514;9.994;2023-02-28T11:17:26;12.90;47.70
981;DHT22;479;53.514;9.994;2023-02-28T11:19:57;12.60;45.50
981;DHT22;479;53.514;9.994;2023-02-28T11:22:28;12.50;46.60
981;DHT22;479;53.514;9.994;2023-02-28T11:24:57;12.50;48.50
981;DHT22;479;53.514;9.994;2023-02-28T11:27:47;12.30;46.50
981;DHT22;479;53.514;9.994;2023-02-28T11:30:39;12.10;47.10
981;DHT22;479;53.514;9.994;2023-02-28T11:33:22;12.30;46.20
981;DHT22;479;53.514;9.994;2023-02-28T11:35:51;12.30;46.70
981;DHT22;479;53.514;9.994;2023-02-28T11:38:19;12.40;46.20
981;DHT22;479;53.514;9.994;2023-02-28T11:40:51;12.00;46.00
981;DHT22;479;53.514;9.994;2023-02-28T11:43:30;11.90;47.30
981;DHT22;479;53.514;9.994;2023-02-28T11:46:12;12.00;46.40
981;DHT22;479;53.514;9.994;2023-02-28T11:48:49;11.80;46.70
981;DHT22;479;53.514;9.994;2023-02-28T11:51:23;11.70;46.20
981;DHT22;479;53.514;9.994;2023-02-28T11:54:11;11.20;46.30
981;DHT22;479;53.514;9.994;2023-02-28T11:56:43;10.60;47.20
981;DHT22;479;53.514;9.994;2023-02-28T11:59:32;10.00;48.40
981;DHT22;479;53.514;9.994;2023-02-28T12:02:20;9.90;49.60
981;DHT22;479;53.514;9.994;2023-02-28T12:04:53;9.70;50.20
981;DHT22;479;53.514;9.994;2023-02-28T12:07:26;9.80;51.40
981;DHT22;479;53.514;9.994;2023-02-28T12:10:04;9.80;51.60
981;DHT22;479;53.514;9.994;2023-02-28T12:12:40;9.70;49.60
981;DHT22;479;53.514;9.994;2023-02-28T12:15:42;9.60;50.10
981;DHT22;479;53.514;9.994;2023-02-28T12:18:28;9.60;49.80
981;DHT22;479;53.514;9.994;2023-02-28T12:21:02;9.70;50.30
981;DHT22;479;53.514;9.994;2023-02-28T12:23:46;9.30;50.60
981;DHT22;479;53.514;9.994;2023-02-28T12:26:26;9.40;51.20
981;DHT22;479;53.514;9.994;2023-02-28T12:28:59;8.90;49.50
981;DHT22;479;53.514;9.994;2023-02-28T12:31:30;8.30;49.80
981;DHT22;479;53.514;9.994;2023-02-28T12:34:03;8.50;51.30
981;DHT22;479;53.514;9.994;2023-02-28T12:36:33;8.60;50.70
981;DHT22;479;53.514;9.994;2023-02-28T12:39:03;8.70;50.90
981;DHT22;479;53.514;9.994;2023-02-28T12:41:40;9.00;51.00
981;DHT22;479;53.514;9.994;2023-02-28T12:44:11;9.10;49.80
981;DHT22;479;53.514;9.994;2023-02-28T12:46:42;9.00;49.50
981;DHT22;479;53.514;9.994;2023-02-28T12:49:12;8.90;50.00
981;DHT22;479;53.514;9.994;2023-02-28T12:51:40;8.80;49.80
981;DHT22;479;53.514;9.994;2023-02-28T12:54:14;8.70;49.90
981;DHT22;479;53.514;9.994;2023-02-28T12:56:47;8.80;50.10
981;DHT22;479;53.514;9.994;2023-02-28T12:59:23;8.90;49.70
981;DHT22;479;53.514;9.994;2023-02-28T13:02:02;8.90;50.20
981;DHT22;479;53.514;9.994;2023-02-28T13:04:52;8.90;49.80
981;DHT22;479;53.514;9.994;2023-02-28T13:07:40;8.90;50.10
981;DHT22;479;53.514;9.994;2023-02-28T13:10:15;9.00;49.70
981;DHT22;479;53.514;9.994;2023-02-28T13:12:50;8.90;49.30
981;DHT22;479;53.514;9.994;2023-02-28T13:15:20;8.70;48.90
981;DHT22;479;53.514;9.994;2023-02-28T13:17:51;8.90;50.00
981;DHT22;479;53.514;9.994;2023-02-28T13:20:20;8.80;48.90
981;DHT22;479;53.514;9.994;2023-02-28T13:22:49;8.70;49.30
981;DHT22;479;53.514;9.994;2023-02-28T13:28:58;8.30;49.70
981;DHT22;479;53.514;9.994;2023-02-28T13:31:25;8.20;50.50
981;DHT22;479;53.514;9.994;2023-02-28T13:34:13;8.40;50.90
981;DHT22;479;53.514;9.994;2023-02-28T13:36:40;8.60;50.10
981;DHT22;479;53.514;9.994;2023-02-28T13:42:24;8.60;50.30
981;DHT22;479;53.514;9.994;2023-02-28T13:45:23;8.80;50.50
981;DHT22;479;53.514;9.994;2023-02-28T13:47:56;8.60;49.70
981;DHT22;479;53.514;9.994;2023-02-28T13:50:29;8.70;49.70
981;DHT22;479;53.514;9.994;2023-02-28T13:53:22;8.90;49.90
981;DHT22;479;53.514;9.994;2023-02-28T13:55:58;8.90;49.60
981;DHT22;479;53.514;9.994;2023-02-28T13:58:47;8.80;49.40
981;DHT22;479;53.514;9.994;2023-02-28T14:01:36;8.80;50.50
981;DHT22;479;53.514;9.994;2023-02-28T14:07:22;8.80;50.10
981;DHT22;479;53.514;9.994;2023-02-28T14:09:56;8.60;50.50
981;DHT22;479;53.514;9.994;2023-02-28T14:12:56;8.60;50.20
981;DHT22;479;53.514;9.994;2023-02-28T14:15:39;8.70;50.00
981;DHT22;479;53.514;9.994;2023-02-28T14:18:20;8.80;51.00
981;DHT22;479;53.514;9.994;2023-02-28T14:20:50;8.80;50.60
981;DHT22;479;53.514;9.994;2023-02-28T14:23:32;8.90;49.90
981;DHT22;479;53.514;9.994;2023-02-28T14:26:06;8.90;49.90
981;DHT22;479;53.514;9.994;2023-02-28T14:28:48;8.70;49.40
981;DHT22;479;53.514;9.994;2023-02-28T14:31:23;8.70;50.00
981;DHT22;479;53.514;9.994;2023-02-28T14:34:12;8.70;49.70
981;DHT22;479;53.514;9.994;2023-02-28T14:36:43;8.70;49.90
981;DHT22;479;53.514;9.994;2023-02-28T14:39:13;8.60;50.20
981;DHT22;479;53.514;9.994;2023-02-28T14:41:42;8.60;53.20
981;DHT22;479;53.514;9.994;2023-02-28T14:44:18;8.90;55.40
981;DHT22;479;53.514;9.994;2023-02-28T14:46:46;8.90;50.70
981;DHT22;479;53.514;9.994;2023-02-28T14:49:20;8.70;50.10
981;DHT22;479;53.514;9.994;2023-02-28T14:51:49;8.60;50.40
981;DHT22;479;53.514;9.994;2023-02-28T14:54:25;8.50;50.70
981;DHT22;479;53.514;9.994;2023-02-28T14:56:52;8.40;50.60
981;DHT22;479;53.514;9.994;2023-02-28T14:59:27;8.40;50.40
981;DHT22;479;53.514;9.994;2023-02-28T15:02:19;8.30;50.60
981;DHT22;479;53.514;9.994;2023-02-28T15:04:54;8.40;51.60
981;DHT22;479;53.514;9.994;2023-02-28T15:07:21;8.30;52.20
981;DHT22;479;53.514;9.994;2023-02-28T15:10:08;8.20;51.40
981;DHT22;479;53.514;9.994;2023-02-28T15:12:35;8.30;51.30
981;DHT22;479;53.514;9.994;2023-02-28T15:15:04;8.30;51.30
981;DHT22;479;53.514;9.994;2023-02-28T15:17:32;8.30;51.30
981;DHT22;479;53.514;9.994;2023-02-28T15:20:01;8.30;52.00
981;DHT22;479;53.514;9.994;2023-02-28T15:22:33;8.30;52.00
981;DHT22;479;53.514;9.994;2023-02-28T15:25:03;8.10;52.00
981;DHT22;479;53.514;9.994;2023-02-28T15:27:33;8.00;51.90
981;DHT22;479;53.514;9.994;2023-02-28T15:30:15;8.10;52.50
981;DHT22;479;53.514;9.994;2023-02-28T15:32:42;8.20;52.00
981;DHT22;479;53.514;9.994;2023-02-28T15:35:28;8.10;52.10
981;DHT22;479;53.514;9.994;2023-02-28T15:38:01;8.10;52.10
981;DHT22;479;53.514;9.994;2023-02-28T15:40:30;8.00;51.80
981;DHT22;479;53.514;9.994;2023-02-28T15:43:00;7.90;51.70
981;DHT22;479;53.514;9.994;2023-02-28T15:45:36;7.80;51.60
981;DHT22;479;53.514;9.994;2023-02-28T15:48:16;7.90;52.60
981;DHT22;479;53.514;9.994;2023-02-28T15:50:48;8.00;51.90
981;DHT22;479;53.514;9.994;2023-02-28T15:53:18;8.00;51.80
981;DHT22;479;53.514;9.994;2023-02-28T15:55:55;7.90;52.90
981;DHT22;479;53.514;9.994;2023-02-28T15:58:24;8.00;52.30
981;DHT22;479;53.514;9.994;2023-02-28T16:01:20;8.00;52.30
981;DHT22;479;53.514;9.994;2023-02-28T16:03:49;7.90;51.90
981;DHT22;479;53.514;9.994;2023-02-28T16:06:33;7.90;52.30
981;DHT22;479;53.514;9.994;2023-02-28T16:09:01;7.90;52.80
981;DHT22;479;53.514;9.994;2023-02-28T16:11:29;7.80;52.80
981;DHT22;479;53.514;9.994;2023-02-28T16:13:57;7.70;53.50
981;DHT22;479;53.514;9.994;2023-02-28T16:16:26;7.60;54.30
981;DHT22;479;53.514;9.994;2023-02-28T16:18:53;7.60;55.00
981;DHT22;479;53.514;9.994;2023-02-28T16:21:21;7.50;55.20
981;DHT22;479;53.514;9.994;2023-02-28T16:23:48;7.30;55.20
981;DHT22;479;53.514;9.994;2023-02-28T16:26:20;7.10;55.60
981;DHT22;479;53.514;9.994;2023-02-28T16:28:48;7.10;56.20
981;DHT22;479;53.514;9.994;2023-02-28T16:31:15;7.00;56.20
981;DHT22;479;53.514;9.994;2023-02-28T16:33:43;7.00;56.90
981;DHT22;479;53.514;9.994;2023-02-28T16:36:14;7.00;57.10
981;DHT22;479;53.514;9.994;2023-02-28T16:38:43;7.00;57.40
981;DHT22;479;53.514;9.994;2023-02-28T16:41:13;7.00;57.50
981;DHT22;479;53.514;9.994;2023-02-28T16:43:45;6.90;57.30
981;DHT22;479;53.514;9.994;2023-02-28T16:46:14;6.90;58.50
981;DHT22;479;53.514;9.994;2023-02-28T16:48:42;6.90;58.90
981;DHT22;479;53.514;9.994;2023-02-28T16:51:12;6.80;58.40
981;DHT22;479;53.514;9.994;2023-02-28T16:53:39;6.80;59.10
981;DHT22;479;53.514;9.994;2023-02-28T16:56:15;6.70;59.20
981;DHT22;479;53.514;9.994;2023-02-28T16:58:43;6.60;59.50
981;DHT22;479;53.514;9.994;2023-02-28T17:01:10;6.60;60.00
981;DHT22;479;53.514;9.994;2023-02-28T17:03:37;6.50;60.30
981;DHT22;479;53.514;9.994;2023-02-28T17:06:08;6.50;60.50
981;DHT22;479;53.514;9.994;2023-02-28T17:08:42;6.40;61.30
981;DHT22;479;53.514;9.994;2023-02-28T17:11:12;6.40;61.70
981;DHT22;479;53.514;9.994;2023-02-28T17:13:39;6.30;62.10
981;DHT22;479;53.514;9.994;2023-02-28T17:16:13;6.30;62.90
981;DHT22;479;53.514;9.994;2023-02-28T17:18:46;6.40;64.00
981;DHT22;479;53.514;9.994;2023-02-28T17:21:14;6.30;64.00
981;DHT22;479;53.514;9.994;2023-02-28T17:23:41;6.40;65.10
981;DHT22;479;53.514;9.994;2023-02-28T17:26:14;6.40;63.90
981;DHT22;479;53.514;9.994;2023-02-28T17:28:42;6.40;63.40
981;DHT22;479;53.514;9.994;2023-02-28T17:31:09;6.50;63.80
981;DHT22;479;53.514;9.994;2023-02-28T17:33:36;6.50;63.10
981;DHT22;479;53.514;9.994;2023-02-28T17:36:04;6.40;63.80